Hauptseite
METAR-TAF:

METAR-TAF

Flughäfen :

Flughafen Rabat-Salé

Rabat, Marokko

Breite: 34-03N, Länge: 006-46W, Höhe: 84 m

Beobachtung

Neuester Wetterbericht von vor 34 Minuten, um 00:00 UTC
Wind 2 kt aus unterschiedlichen Richtungen
Temperatur 10°C
Luftfeuchtigkeit 93%
Luftdruck 1021 hPa
Sichtweite: 6000 m

METAR: GMME 210000Z VRB02KT 6000 NSC 10/09 Q1021 NOSIG

Zeit: 00:34 (00:34 UTC)

Prognose

Neuester Wetterbericht von vor 1 Stunde und 34 Minuten, um 23:00 UTC
Gültige Prognose vom 21 um 00 UTC bis 22 um 06 UTC
Wind 8 kt aus Nordwest
Sichtweite: 8000 m

TAF: GMME 202300Z 2100/2206 32008KT 8000 NSC

Wetterbeobachtungen und Prognosen von mehr als 4000 Flughäfen (METAR und TAF Bericht).

Die verfügbaren Stationen werden durch gelbe und rote Markierungen auf der Karte dargestellt.

Führen Sie die Maus auf sie, um den Namen der Station zu sehen.

Darauf klicken, um die Beobachtung von Wetterbeobachtungen und Prognosen zu sehen.

Um die Karte zu ändern : klicken Sie auf den grünen Tasten mit einem schwarzen Kreuz Zum Vergrößern, auf den grünen Button mit einem Gedankenstrich zu verkleinern, oder auf die grünen Pfeile für benachbarte Karten.


METAR-TAF: